Time;durP1;ratioP1;P1;durP2;ratioP2;P2;SDS_P1;SDS_P2;PMS_P1;PMS_P2;Temp;Humidity;BMP_temperature;BMP_pressure;BME280_temperature;BME280_humidity;BME280_pressure;Samples;Min_cycle;Max_cycle;Signal;HPM_P1;HPM_P2
2023/10/18 00:01:47;;;;;;;5.80;2.90;;;;;;;;;;5116528;28;20325;-71
2023/10/18 00:04:32;;;;;;;3.55;2.72;;;;;;;;;;5116150;28;20019;-70
2023/10/18 00:07:18;;;;;;;5.22;2.75;;;;;;;;;;5115803;28;20455;-70
2023/10/18 00:10:04;;;;;;;6.13;2.80;;;;;;;;;;5115936;28;20200;-70
2023/10/18 00:12:52;;;;;;;6.28;3.30;;;;;;;;;;5116363;28;20027;-70
2023/10/18 00:15:38;;;;;;;6.38;3.38;;;;;;;;;;5115652;28;20050;-71
2023/10/18 00:18:24;;;;;;;8.07;3.58;;;;;;;;;;5116013;28;20451;-71
2023/10/18 00:21:09;;;;;;;7.15;3.88;;;;;;;;;;5115626;28;20375;-70
2023/10/18 00:23:55;;;;;;;8.73;3.60;;;;;;;;;;5115367;28;20020;-71
2023/10/18 00:26:40;;;;;;;5.93;3.55;;;;;;;;;;5117368;28;20023;-70
2023/10/18 00:29:26;;;;;;;6.15;3.80;;;;;;;;;;5123819;28;20086;-71
2023/10/18 00:32:12;;;;;;;5.95;3.88;;;;;;;;;;5124440;28;20034;-71
2023/10/18 00:34:57;;;;;;;14.93;4.13;;;;;;;;;;5106127;28;20020;-71
2023/10/18 00:37:44;;;;;;;8.75;3.90;;;;;;;;;;5116571;28;20161;-71
2023/10/18 00:43:22;;;;;;;6.97;3.90;;;;;;;;;;5116144;28;20015;-71
2023/10/18 00:46:08;;;;;;;6.88;3.97;;;;;;;;;;5116720;28;20035;-71
2023/10/18 00:48:53;;;;;;;8.05;3.53;;;;;;;;;;5100318;28;20016;-71
2023/10/18 00:51:40;;;;;;;8.02;3.65;;;;;;;;;;5100388;28;20044;-72
2023/10/18 00:54:26;;;;;;;4.57;3.35;;;;;;;;;;5115960;28;20026;-72
2023/10/18 00:57:12;;;;;;;10.32;4.30;;;;;;;;;;5114723;28;20027;-71
2023/10/18 00:59:57;;;;;;;10.27;4.03;;;;;;;;;;5100211;28;20019;-71
2023/10/18 01:02:43;;;;;;;6.97;4.00;;;;;;;;;;5115451;28;20020;-72
2023/10/18 01:05:29;;;;;;;8.57;4.05;;;;;;;;;;5101760;28;20436;-71
2023/10/18 01:08:15;;;;;;;9.35;4.15;;;;;;;;;;5101145;28;20066;-71
2023/10/18 01:11:06;;;;;;;9.02;4.40;;;;;;;;;;5101000;28;20106;-73
2023/10/18 01:13:55;;;;;;;8.23;4.20;;;;;;;;;;5100325;28;20519;-69
2023/10/18 01:16:40;;;;;;;6.60;4.07;;;;;;;;;;5117621;28;20351;-70
2023/10/18 01:19:26;;;;;;;11.15;4.20;;;;;;;;;;5116281;28;20022;-71
2023/10/18 01:22:12;;;;;;;8.73;3.92;;;;;;;;;;5114770;28;20050;-71
2023/10/18 01:24:57;;;;;;;8.30;4.35;;;;;;;;;;5114812;28;20028;-71
2023/10/18 01:27:45;;;;;;;9.15;4.10;;;;;;;;;;5114597;28;20348;-71
2023/10/18 01:30:31;;;;;;;8.27;4.35;;;;;;;;;;5115445;28;20034;-70
2023/10/18 01:33:17;;;;;;;8.05;4.20;;;;;;;;;;5114106;28;20015;-71
2023/10/18 01:36:04;;;;;;;10.60;3.95;;;;;;;;;;5114242;28;20040;-72
2023/10/18 01:38:56;;;;;;;8.98;4.65;;;;;;;;;;5114296;28;20011;-71
2023/10/18 01:41:41;;;;;;;8.40;4.40;;;;;;;;;;5115641;28;20103;-71
2023/10/18 01:44:33;;;;;;;9.85;5.00;;;;;;;;;;5114592;28;20023;-70
2023/10/18 01:47:21;;;;;;;11.73;5.30;;;;;;;;;;5114289;28;20019;-71
2023/10/18 01:50:08;;;;;;;8.13;5.10;;;;;;;;;;5114377;28;20031;-71
2023/10/18 01:52:54;;;;;;;11.07;5.75;;;;;;;;;;5114489;28;20036;-71
2023/10/18 01:55:42;;;;;;;13.55;6.03;;;;;;;;;;5114503;28;20482;-72
2023/10/18 01:58:29;;;;;;;9.48;5.60;;;;;;;;;;5114209;28;20356;-71
2023/10/18 02:01:16;;;;;;;11.82;5.65;;;;;;;;;;5114699;28;20427;-72
2023/10/18 02:04:03;;;;;;;7.15;4.72;;;;;;;;;;5099712;28;20030;-72
2023/10/18 02:06:50;;;;;;;10.15;5.28;;;;;;;;;;5099164;28;20085;-71
2023/10/18 02:09:36;;;;;;;8.98;4.65;;;;;;;;;;5118277;28;20015;-71
2023/10/18 02:12:21;;;;;;;9.52;4.93;;;;;;;;;;5104450;28;20031;-70
2023/10/18 02:15:07;;;;;;;6.50;4.15;;;;;;;;;;5118214;28;20029;-70
2023/10/18 02:17:56;;;;;;;9.48;4.55;;;;;;;;;;5119633;28;20115;-71
2023/10/18 02:20:50;;;;;;;7.15;4.20;;;;;;;;;;5103874;28;20016;-72
2023/10/18 02:23:36;;;;;;;7.00;4.32;;;;;;;;;;5103944;28;20043;-71
2023/10/18 02:26:30;;;;;;;6.82;4.05;;;;;;;;;;5103420;28;20023;-72
2023/10/18 02:29:17;;;;;;;5.47;3.70;;;;;;;;;;5117942;28;20458;-71
2023/10/18 02:32:04;;;;;;;7.60;4.05;;;;;;;;;;5117779;28;20031;-71
2023/10/18 02:34:53;;;;;;;9.65;4.03;;;;;;;;;;5118207;28;20016;-71
2023/10/18 02:37:38;;;;;;;7.88;3.85;;;;;;;;;;5117399;28;20019;-72
2023/10/18 02:40:30;;;;;;;7.95;3.60;;;;;;;;;;5117295;28;20077;-72
2023/10/18 02:43:16;;;;;;;12.25;4.07;;;;;;;;;;5117226;28;20020;-71
2023/10/18 02:46:06;;;;;;;8.63;3.80;;;;;;;;;;5117780;28;20023;-71
2023/10/18 02:48:56;;;;;;;6.70;3.50;;;;;;;;;;5117569;28;20509;-71
2023/10/18 02:51:43;;;;;;;9.27;5.40;;;;;;;;;;5102231;28;20109;-71
2023/10/18 02:54:32;;;;;;;7.38;4.53;;;;;;;;;;5117707;28;20032;-72
2023/10/18 02:57:17;;;;;;;6.78;3.47;;;;;;;;;;5117246;28;20024;-71
2023/10/18 03:00:10;;;;;;;5.97;3.50;;;;;;;;;;5117418;28;20047;-71
2023/10/18 03:02:55;;;;;;;8.52;4.20;;;;;;;;;;5117226;28;20030;-72
2023/10/18 03:05:41;;;;;;;7.10;3.85;;;;;;;;;;5117967;28;20027;-72
2023/10/18 03:08:28;;;;;;;15.25;4.40;;;;;;;;;;5117575;28;20098;-72
2023/10/18 03:11:13;;;;;;;9.02;4.03;;;;;;;;;;5117439;28;20413;-71
2023/10/18 03:14:01;;;;;;;8.52;3.97;;;;;;;;;;5117271;28;20023;-72
2023/10/18 03:16:47;;;;;;;7.80;3.85;;;;;;;;;;5117215;28;20097;-71
2023/10/18 03:19:33;;;;;;;6.43;3.70;;;;;;;;;;5117167;28;20432;-73
2023/10/18 03:22:22;;;;;;;10.60;3.80;;;;;;;;;;5116917;28;20020;-72
2023/10/18 03:25:11;;;;;;;7.50;4.13;;;;;;;;;;5102154;28;20038;-71
2023/10/18 03:27:57;;;;;;;8.60;4.03;;;;;;;;;;5101839;28;20045;-70
2023/10/18 03:30:46;;;;;;;7.18;3.78;;;;;;;;;;5101782;28;20038;-70
2023/10/18 03:33:33;;;;;;;8.93;4.40;;;;;;;;;;5116737;28;20046;-70
2023/10/18 03:36:21;;;;;;;9.18;4.68;;;;;;;;;;5116273;28;20020;-70
2023/10/18 03:39:12;;;;;;;9.10;4.15;;;;;;;;;;5116763;28;20031;-71
2023/10/18 03:42:03;;;;;;;8.45;4.43;;;;;;;;;;5116455;28;20354;-70
2023/10/18 03:44:51;;;;;;;7.95;4.35;;;;;;;;;;5116320;28;20032;-70
2023/10/18 03:47:41;;;;;;;7.85;4.70;;;;;;;;;;5117351;28;20023;-70
2023/10/18 03:50:40;;;;;;;12.70;5.05;;;;;;;;;;5100794;28;20016;-69
2023/10/18 03:53:27;;;;;;;15.00;4.72;;;;;;;;;;5115945;28;20032;-71
2023/10/18 03:56:13;;;;;;;9.20;5.28;;;;;;;;;;5101405;28;20430;-70
2023/10/18 03:59:09;;;;;;;12.95;5.60;;;;;;;;;;5101863;28;20019;-69
2023/10/18 04:05:00;;;;;;;9.23;5.20;;;;;;;;;;5116418;28;20015;-70
2023/10/18 04:07:46;;;;;;;9.02;5.05;;;;;;;;;;5115863;28;20169;-70
2023/10/18 04:10:35;;;;;;;8.80;4.85;;;;;;;;;;5101011;28;20019;-70
2023/10/18 04:13:24;;;;;;;8.23;3.90;;;;;;;;;;5100956;28;20356;-69
2023/10/18 04:16:17;;;;;;;8.18;4.30;;;;;;;;;;5116006;28;20035;-69
2023/10/18 04:19:07;;;;;;;10.73;4.28;;;;;;;;;;5115455;28;20027;-69
2023/10/18 04:21:53;;;;;;;12.77;5.78;;;;;;;;;;5101338;28;20076;-70
2023/10/18 04:24:39;;;;;;;8.98;5.20;;;;;;;;;;5101242;28;20356;-69
2023/10/18 04:27:26;;;;;;;11.73;5.63;;;;;;;;;;5115901;28;20110;-71
2023/10/18 04:30:16;;;;;;;12.45;5.18;;;;;;;;;;5115823;28;20414;-70
2023/10/18 04:35:58;;;;;;;14.10;5.93;;;;;;;;;;5116320;28;20070;-70
2023/10/18 04:38:47;;;;;;;11.52;5.93;;;;;;;;;;5100475;28;20031;-72
2023/10/18 04:41:32;;;;;;;13.32;6.18;;;;;;;;;;5102606;28;20340;-72
2023/10/18 04:44:18;;;;;;;28.35;7.72;;;;;;;;;;5115999;28;20395;-71
2023/10/18 04:47:04;;;;;;;22.35;6.65;;;;;;;;;;5115702;28;20103;-71
2023/10/18 04:50:04;;;;;;;18.23;5.88;;;;;;;;;;5115793;28;20037;-70
2023/10/18 04:52:50;;;;;;;14.25;6.30;;;;;;;;;;5100663;28;20039;-71
2023/10/18 04:55:41;;;;;;;13.35;6.38;;;;;;;;;;5115112;28;20024;-71
2023/10/18 04:58:29;;;;;;;12.52;6.47;;;;;;;;;;5116751;28;20023;-73
2023/10/18 05:01:16;;;;;;;15.75;6.38;;;;;;;;;;5115443;28;20016;-72
2023/10/18 05:07:18;;;;;;;24.38;6.80;;;;;;;;;;5115803;28;20340;-71
2023/10/18 05:10:14;;;;;;;15.82;6.53;;;;;;;;;;5114917;28;20020;-70
2023/10/18 05:15:45;;;;;;;15.82;6.47;;;;;;;;;;5100071;28;20034;-70
2023/10/18 05:18:31;;;;;;;14.90;7.30;;;;;;;;;;5113793;28;20019;-70
2023/10/18 05:21:20;;;;;;;15.05;6.88;;;;;;;;;;5114824;28;20027;-70
2023/10/18 05:24:06;;;;;;;15.95;8.18;;;;;;;;;;5114549;28;20164;-69
2023/10/18 05:26:55;;;;;;;20.02;8.10;;;;;;;;;;5115201;28;20030;-69
2023/10/18 05:29:43;;;;;;;16.98;6.63;;;;;;;;;;5114851;28;20023;-70
2023/10/18 05:35:33;;;;;;;14.60;7.40;;;;;;;;;;5114908;28;20012;-71
2023/10/18 05:38:19;;;;;;;19.85;7.80;;;;;;;;;;5114914;28;20016;-71
2023/10/18 05:41:18;;;;;;;15.57;7.57;;;;;;;;;;5099768;28;20423;-72
2023/10/18 05:44:06;;;;;;;18.48;7.75;;;;;;;;;;5113579;28;20024;-70
2023/10/18 05:46:52;;;;;;;16.15;7.22;;;;;;;;;;5114248;28;20442;-70
2023/10/18 05:49:43;;;;;;;18.00;7.10;;;;;;;;;;5114402;28;20058;-71
2023/10/18 05:52:38;;;;;;;17.35;7.10;;;;;;;;;;5114865;28;20043;-68
2023/10/18 05:55:30;;;;;;;15.82;7.70;;;;;;;;;;5114837;28;20051;-70
2023/10/18 05:58:25;;;;;;;25.40;9.70;;;;;;;;;;5115009;28;20016;-72
2023/10/18 06:01:13;;;;;;;17.27;7.72;;;;;;;;;;5114484;28;20448;-70
2023/10/18 06:03:59;;;;;;;17.50;8.13;;;;;;;;;;5114161;28;20030;-70
2023/10/18 06:06:44;;;;;;;19.38;8.00;;;;;;;;;;5099286;28;20020;-70
2023/10/18 06:09:33;;;;;;;21.10;8.55;;;;;;;;;;5114164;28;20080;-70
2023/10/18 06:12:27;;;;;;;23.60;8.63;;;;;;;;;;5113952;28;20459;-70
2023/10/18 06:15:14;;;;;;;22.48;9.10;;;;;;;;;;5113452;28;20024;-69
2023/10/18 06:18:00;;;;;;;15.57;8.57;;;;;;;;;;5099663;28;20051;-69
2023/10/18 06:20:45;;;;;;;17.88;8.52;;;;;;;;;;5113296;28;20031;-70
2023/10/18 06:23:37;;;;;;;18.60;8.35;;;;;;;;;;5113836;28;20028;-69
2023/10/18 06:26:29;;;;;;;19.95;9.63;;;;;;;;;;5113892;28;20085;-70
2023/10/18 06:29:22;;;;;;;20.33;9.07;;;;;;;;;;5114194;28;20020;-71
2023/10/18 06:32:12;;;;;;;32.72;9.95;;;;;;;;;;5114022;28;20019;-68
2023/10/18 06:34:58;;;;;;;22.38;9.50;;;;;;;;;;5113829;28;20016;-72
2023/10/18 06:37:44;;;;;;;25.30;10.32;;;;;;;;;;5098906;28;20360;-69
2023/10/18 06:43:36;;;;;;;18.95;8.60;;;;;;;;;;5114050;28;20028;-69
2023/10/18 06:46:27;;;;;;;14.30;8.13;;;;;;;;;;5113514;28;20023;-70
2023/10/18 06:49:13;;;;;;;19.95;8.25;;;;;;;;;;5113372;28;20023;-70
2023/10/18 06:52:00;;;;;;;16.70;8.60;;;;;;;;;;5098498;28;20079;-69
2023/10/18 06:54:45;;;;;;;15.05;8.60;;;;;;;;;;5118085;28;20024;-69
2023/10/18 06:57:35;;;;;;;21.65;8.60;;;;;;;;;;5102776;28;20114;-69
2023/10/18 07:00:29;;;;;;;14.48;7.88;;;;;;;;;;5117526;28;20015;-69
2023/10/18 07:03:18;;;;;;;17.85;8.80;;;;;;;;;;5118072;28;20122;-69
2023/10/18 07:06:05;;;;;;;15.20;7.82;;;;;;;;;;5117259;28;20491;-69
2023/10/18 07:08:50;;;;;;;14.38;8.48;;;;;;;;;;5117064;28;20452;-70
2023/10/18 07:11:39;;;;;;;20.02;8.20;;;;;;;;;;5116506;28;20392;-69
2023/10/18 07:14:25;;;;;;;17.35;7.80;;;;;;;;;;5117058;28;20102;-69
2023/10/18 07:17:10;;;;;;;19.70;8.88;;;;;;;;;;5116835;28;20024;-69
2023/10/18 07:19:56;;;;;;;17.30;8.52;;;;;;;;;;5116986;28;20456;-69
2023/10/18 07:22:45;;;;;;;16.33;8.48;;;;;;;;;;5115932;28;20024;-69
2023/10/18 07:25:32;;;;;;;14.82;8.50;;;;;;;;;;5117184;28;20390;-70
2023/10/18 07:28:21;;;;;;;24.55;8.35;;;;;;;;;;5103060;28;20095;-69
2023/10/18 07:31:10;;;;;;;17.75;8.43;;;;;;;;;;5116204;28;20040;-68
2023/10/18 07:33:55;;;;;;;15.52;8.10;;;;;;;;;;5117943;28;20054;-69
2023/10/18 07:36:44;;;;;;;16.30;9.02;;;;;;;;;;5116241;28;20027;-69
2023/10/18 07:39:32;;;;;;;18.67;8.50;;;;;;;;;;5115826;28;20359;-69
2023/10/18 07:42:21;;;;;;;16.25;8.57;;;;;;;;;;5101475;28;20440;-69
2023/10/18 07:45:08;;;;;;;18.52;8.75;;;;;;;;;;5116043;28;20080;-69
2023/10/18 07:47:54;;;;;;;18.08;9.20;;;;;;;;;;5117693;28;20024;-68
2023/10/18 07:53:26;;;;;;;15.52;9.45;;;;;;;;;;5115948;28;20015;-69
2023/10/18 07:56:11;;;;;;;16.70;9.30;;;;;;;;;;5116372;28;20047;-70
2023/10/18 08:02:42;;;;;;;19.90;9.52;;;;;;;;;;5117556;28;20097;-69
2023/10/18 08:05:30;;;;;;;21.13;9.63;;;;;;;;;;5115632;28;20023;-68
2023/10/18 08:08:16;;;;;;;16.98;9.27;;;;;;;;;;5100761;28;20076;-68
2023/10/18 08:11:04;;;;;;;17.75;10.13;;;;;;;;;;5115734;28;20020;-69
2023/10/18 08:13:49;;;;;;;14.85;9.00;;;;;;;;;;5102065;28;20038;-69
2023/10/18 08:16:44;;;;;;;24.80;9.88;;;;;;;;;;5101985;28;20042;-70
2023/10/18 08:19:32;;;;;;;17.80;9.45;;;;;;;;;;5101488;28;20019;-69
2023/10/18 08:25:03;;;;;;;17.85;9.93;;;;;;;;;;5117155;28;20015;-69
2023/10/18 08:27:49;;;;;;;17.50;10.00;;;;;;;;;;5101561;28;20020;-70
2023/10/18 08:31:02;;;;;;;18.10;10.05;;;;;;;;;;5101191;28;20023;-69
2023/10/18 08:33:44;;;;;;;18.45;9.68;;;;;;;;;;5115951;28;20024;-69
2023/10/18 08:36:29;;;;;;;19.17;9.18;;;;;;;;;;5115472;28;20028;-70
2023/10/18 08:39:16;;;;;;;16.08;9.07;;;;;;;;;;5115240;28;20027;-69
2023/10/18 08:42:02;;;;;;;21.77;9.73;;;;;;;;;;5100691;28;20023;-69
2023/10/18 08:44:55;;;;;;;14.63;8.80;;;;;;;;;;5115904;28;20060;-69
2023/10/18 08:47:46;;;;;;;18.33;10.43;;;;;;;;;;5100413;28;20020;-69
2023/10/18 08:50:33;;;;;;;19.00;10.68;;;;;;;;;;5115474;28;20493;-69
2023/10/18 08:53:22;;;;;;;20.73;10.88;;;;;;;;;;5115964;28;20030;-69
2023/10/18 08:56:08;;;;;;;21.33;10.80;;;;;;;;;;5100236;28;20459;-69
2023/10/18 08:58:56;;;;;;;18.23;8.90;;;;;;;;;;5101319;28;20020;-69
2023/10/18 09:02:02;;;;;;;15.45;9.38;;;;;;;;;;5115224;28;20015;-69
2023/10/18 09:04:52;;;;;;;17.27;8.15;;;;;;;;;;5114553;28;20023;-70
2023/10/18 09:07:43;;;;;;;10.30;7.13;;;;;;;;;;5116364;28;20423;-70
2023/10/18 09:10:49;;;;;;;16.60;7.13;;;;;;;;;;5099818;28;20100;-69
2023/10/18 09:13:37;;;;;;;8.20;5.82;;;;;;;;;;5099686;28;20026;-68
2023/10/18 09:16:23;;;;;;;14.20;6.63;;;;;;;;;;5115801;28;20024;-72
2023/10/18 09:19:11;;;;;;;13.57;6.50;;;;;;;;;;5114072;28;20020;-69
2023/10/18 09:22:01;;;;;;;12.05;6.25;;;;;;;;;;5114551;28;20119;-69
2023/10/18 09:24:47;;;;;;;12.80;5.38;;;;;;;;;;5114569;28;20038;-69
2023/10/18 09:27:33;;;;;;;11.45;4.70;;;;;;;;;;5114362;28;20023;-69
2023/10/18 09:30:18;;;;;;;9.10;4.55;;;;;;;;;;5100259;28;20038;-69
2023/10/18 09:33:04;;;;;;;9.10;4.75;;;;;;;;;;5099350;28;20031;-69
2023/10/18 09:35:51;;;;;;;7.93;4.57;;;;;;;;;;5114252;28;20028;-69
2023/10/18 09:38:39;;;;;;;11.65;5.93;;;;;;;;;;5114403;28;20088;-70
2023/10/18 09:41:30;;;;;;;11.98;6.38;;;;;;;;;;5112684;28;20410;-69
2023/10/18 09:44:18;;;;;;;10.57;5.82;;;;;;;;;;5114191;28;20069;-68
2023/10/18 09:47:04;;;;;;;13.73;5.45;;;;;;;;;;5114298;28;20053;-69
2023/10/18 09:49:50;;;;;;;11.20;5.85;;;;;;;;;;5114228;28;20026;-69
2023/10/18 09:52:47;;;;;;;14.88;5.10;;;;;;;;;;5113505;28;20361;-69
2023/10/18 09:55:33;;;;;;;10.30;4.43;;;;;;;;;;5114301;28;20471;-70
2023/10/18 09:58:19;;;;;;;7.28;4.63;;;;;;;;;;5114179;28;20033;-69
2023/10/18 10:01:13;;;;;;;9.85;4.22;;;;;;;;;;5113534;28;20019;-70
2023/10/18 10:04:01;;;;;;;7.25;4.75;;;;;;;;;;5113977;28;20023;-72
2023/10/18 10:06:48;;;;;;;9.10;4.88;;;;;;;;;;5098964;28;20024;-77
2023/10/18 10:09:38;;;;;;;10.35;5.10;;;;;;;;;;5099549;28;20039;-76
2023/10/18 10:12:27;;;;;;;12.38;4.93;;;;;;;;;;5099270;28;20065;-75
2023/10/18 10:15:17;;;;;;;10.15;4.80;;;;;;;;;;5099043;28;20016;-73
2023/10/18 10:18:06;;;;;;;11.82;5.10;;;;;;;;;;5098668;28;20024;-73
2023/10/18 10:20:54;;;;;;;7.20;4.13;;;;;;;;;;5114278;28;20066;-73
2023/10/18 10:23:41;;;;;;;7.53;4.32;;;;;;;;;;5098681;28;20077;-73
2023/10/18 10:26:35;;;;;;;6.35;4.20;;;;;;;;;;5100405;28;20032;-74
2023/10/18 10:32:16;;;;;;;5.43;3.97;;;;;;;;;;5118262;28;20313;-76
2023/10/18 10:35:17;;;;;;;6.57;3.70;;;;;;;;;;5118634;28;20498;-77
2023/10/18 10:38:06;;;;;;;7.80;4.00;;;;;;;;;;5117712;28;20477;-77
2023/10/18 10:41:19;;;;;;;6.13;3.45;;;;;;;;;;5118135;28;20037;-73
2023/10/18 10:44:08;;;;;;;7.25;3.60;;;;;;;;;;5119039;28;20027;-74
2023/10/18 10:47:13;;;;;;;7.30;3.72;;;;;;;;;;5118119;28;20439;-73
2023/10/18 10:50:07;;;;;;;7.82;3.63;;;;;;;;;;5105290;28;20085;-73
2023/10/18 10:52:53;;;;;;;7.53;3.22;;;;;;;;;;5117811;28;20039;-71
2023/10/18 10:55:39;;;;;;;7.80;3.83;;;;;;;;;;5117734;28;20015;-74
2023/10/18 10:58:29;;;;;;;11.82;6.53;;;;;;;;;;5116854;28;20389;-72
2023/10/18 11:01:29;;;;;;;7.03;3.70;;;;;;;;;;5101911;28;20088;-71
2023/10/18 11:04:29;;;;;;;7.65;4.32;;;;;;;;;;5116963;28;20072;-71
2023/10/18 11:07:21;;;;;;;8.13;3.92;;;;;;;;;;5090623;28;20443;-72
2023/10/18 11:10:14;;;;;;;7.68;4.60;;;;;;;;;;5101927;28;20024;-71
2023/10/18 11:13:00;;;;;;;7.78;4.18;;;;;;;;;;5117406;28;20492;-72
2023/10/18 11:15:45;;;;;;;6.47;4.05;;;;;;;;;;5108497;28;20007;-72
2023/10/18 11:18:34;;;;;;;8.07;3.95;;;;;;;;;;5117175;28;20358;-71
2023/10/18 11:21:29;;;;;;;9.23;4.18;;;;;;;;;;5101831;28;20465;-71
2023/10/18 11:24:14;;;;;;;9.07;4.47;;;;;;;;;;5101921;28;20106;-71
2023/10/18 11:27:02;;;;;;;7.78;3.88;;;;;;;;;;5102212;28;20035;-72
2023/10/18 11:29:52;;;;;;;11.90;4.13;;;;;;;;;;5116557;28;20051;-72
2023/10/18 11:32:37;;;;;;;6.90;3.58;;;;;;;;;;5101760;28;20359;-73
2023/10/18 11:35:37;;;;;;;9.02;4.22;;;;;;;;;;5116808;28;20012;-73
2023/10/18 11:38:23;;;;;;;6.82;4.25;;;;;;;;;;5102592;28;20020;-73
2023/10/18 11:41:11;;;;;;;7.40;3.90;;;;;;;;;;5100952;28;20050;-74
2023/10/18 11:43:57;;;;;;;6.32;3.97;;;;;;;;;;5101962;28;20032;-73
2023/10/18 11:46:46;;;;;;;9.05;3.95;;;;;;;;;;5116417;28;20027;-73
2023/10/18 11:49:39;;;;;;;8.82;3.85;;;;;;;;;;5116396;28;20067;-73
2023/10/18 11:52:26;;;;;;;14.32;3.80;;;;;;;;;;5116036;28;20039;-72
2023/10/18 11:55:12;;;;;;;7.85;3.70;;;;;;;;;;5116674;28;20023;-74
2023/10/18 11:58:07;;;;;;;10.48;3.90;;;;;;;;;;5115677;28;20447;-72
2023/10/18 12:01:05;;;;;;;13.88;4.15;;;;;;;;;;5102060;28;20074;-71
2023/10/18 12:03:51;;;;;;;10.07;3.65;;;;;;;;;;5095279;28;20051;-70
2023/10/18 12:06:37;;;;;;;9.60;3.60;;;;;;;;;;5095051;28;20020;-69
2023/10/18 12:12:12;;;;;;;7.03;4.18;;;;;;;;;;5094449;28;20027;-70
2023/10/18 12:14:58;;;;;;;7.32;3.85;;;;;;;;;;5095774;28;20047;-70
2023/10/18 12:17:46;;;;;;;10.05;3.80;;;;;;;;;;5095228;28;20030;-68
2023/10/18 12:20:42;;;;;;;6.32;3.10;;;;;;;;;;5075353;28;20032;-70
2023/10/18 12:23:28;;;;;;;9.48;3.40;;;;;;;;;;5060692;28;20031;-69
2023/10/18 12:26:14;;;;;;;6.57;3.20;;;;;;;;;;5076713;28;20085;-69
2023/10/18 12:29:04;;;;;;;5.95;2.85;;;;;;;;;;5075447;28;20016;-69
2023/10/18 12:31:52;;;;;;;5.45;3.17;;;;;;;;;;5060566;28;20029;-69
2023/10/18 12:34:43;;;;;;;7.32;3.53;;;;;;;;;;5076161;28;20052;-69
2023/10/18 12:37:32;;;;;;;7.03;3.67;;;;;;;;;;5075802;28;20021;-69
2023/10/18 12:40:32;;;;;;;7.97;3.67;;;;;;;;;;5075126;28;20013;-69
2023/10/18 12:43:19;;;;;;;5.70;3.47;;;;;;;;;;5075700;28;20033;-69
2023/10/18 12:46:06;;;;;;;4.25;2.85;;;;;;;;;;5059790;28;20424;-69
2023/10/18 12:48:52;;;;;;;7.38;3.00;;;;;;;;;;5075219;28;20095;-69
2023/10/18 12:51:42;;;;;;;8.07;3.90;;;;;;;;;;5075105;28;20048;-69
2023/10/18 12:54:34;;;;;;;6.25;3.65;;;;;;;;;;5074844;28;20013;-68
2023/10/18 12:57:20;;;;;;;9.90;4.45;;;;;;;;;;5094942;28;20016;-69
2023/10/18 13:00:16;;;;;;;6.57;3.20;;;;;;;;;;5095761;28;20103;-69
2023/10/18 13:05:51;;;;;;;5.97;2.85;;;;;;;;;;5095505;28;20027;-69
2023/10/18 13:08:39;;;;;;;5.18;3.22;;;;;;;;;;5095629;28;20031;-68
2023/10/18 13:14:31;;;;;;;8.80;3.45;;;;;;;;;;5095671;28;20039;-69
2023/10/18 13:17:18;;;;;;;7.57;3.40;;;;;;;;;;5079839;28;20094;-70
2023/10/18 13:20:06;;;;;;;5.57;3.08;;;;;;;;;;5095393;28;20157;-69
2023/10/18 13:22:55;;;;;;;10.20;4.03;;;;;;;;;;5095492;28;20020;-69
2023/10/18 13:25:51;;;;;;;6.65;3.33;;;;;;;;;;5095596;28;20107;-68
2023/10/18 13:28:51;;;;;;;6.20;3.40;;;;;;;;;;5095538;28;20451;-71
2023/10/18 13:31:36;;;;;;;9.88;3.97;;;;;;;;;;5095141;28;20110;-70
2023/10/18 13:34:22;;;;;;;8.88;3.20;;;;;;;;;;5094669;28;20012;-69
2023/10/18 13:37:12;;;;;;;7.78;3.28;;;;;;;;;;5094604;28;20041;-70
2023/10/18 13:39:58;;;;;;;9.88;4.65;;;;;;;;;;5093615;28;20356;-70
2023/10/18 13:42:45;;;;;;;7.15;3.47;;;;;;;;;;5093536;28;20024;-72
2023/10/18 13:45:33;;;;;;;8.30;3.30;;;;;;;;;;5095674;28;20535;-73
2023/10/18 13:48:18;;;;;;;7.97;3.67;;;;;;;;;;5095089;28;20024;-73
2023/10/18 13:51:05;;;;;;;9.68;3.60;;;;;;;;;;5079657;28;20044;-72
2023/10/18 13:53:51;;;;;;;8.40;3.67;;;;;;;;;;5095315;28;20035;-72
2023/10/18 13:56:37;;;;;;;8.75;4.05;;;;;;;;;;5079592;28;20023;-72
2023/10/18 13:59:23;;;;;;;12.27;4.20;;;;;;;;;;5093710;28;20020;-72
2023/10/18 14:02:08;;;;;;;9.10;3.60;;;;;;;;;;5081166;28;20024;-72
2023/10/18 14:04:54;;;;;;;10.00;4.13;;;;;;;;;;5094379;28;20440;-72
2023/10/18 14:07:41;;;;;;;10.23;4.88;;;;;;;;;;5097619;28;20051;-72
2023/10/18 14:10:35;;;;;;;9.52;4.28;;;;;;;;;;5092410;28;20016;-72
2023/10/18 14:13:24;;;;;;;6.97;3.45;;;;;;;;;;5095892;28;20051;-71
2023/10/18 14:16:12;;;;;;;7.13;3.40;;;;;;;;;;5095495;28;20066;-73
2023/10/18 14:18:57;;;;;;;6.20;3.17;;;;;;;;;;5111943;28;20020;-75
2023/10/18 14:21:46;;;;;;;10.05;3.72;;;;;;;;;;5108767;28;20142;-73
2023/10/18 14:24:32;;;;;;;10.85;3.50;;;;;;;;;;5095580;28;20020;-73
2023/10/18 14:27:17;;;;;;;7.78;3.53;;;;;;;;;;5090873;28;20020;-72
2023/10/18 14:30:03;;;;;;;6.75;3.05;;;;;;;;;;5110512;28;19996;-71
2023/10/18 14:32:49;;;;;;;9.75;4.20;;;;;;;;;;5098741;28;20029;-70
2023/10/18 14:35:35;;;;;;;5.97;3.80;;;;;;;;;;5109099;28;20060;-74
2023/10/18 14:38:21;;;;;;;7.32;3.88;;;;;;;;;;5103543;28;20399;-74
2023/10/18 14:41:17;;;;;;;9.98;4.55;;;;;;;;;;5096393;28;20013;-74
2023/10/18 14:44:07;;;;;;;7.13;4.07;;;;;;;;;;5096271;28;20030;-72
2023/10/18 14:46:55;;;;;;;12.15;4.15;;;;;;;;;;5081929;28;20020;-74
2023/10/18 14:49:40;;;;;;;6.93;3.67;;;;;;;;;;5088551;28;20028;-72
2023/10/18 14:52:26;;;;;;;11.00;4.25;;;;;;;;;;5112420;28;20047;-72
2023/10/18 14:55:12;;;;;;;11.40;4.07;;;;;;;;;;5118643;28;20108;-73
2023/10/18 14:57:58;;;;;;;7.57;4.00;;;;;;;;;;5118235;28;20044;-73
2023/10/18 15:00:46;;;;;;;8.40;3.90;;;;;;;;;;5120972;28;20027;-73
2023/10/18 15:03:31;;;;;;;10.90;4.65;;;;;;;;;;5117782;28;20019;-72
2023/10/18 15:06:17;;;;;;;12.77;4.30;;;;;;;;;;5120881;28;20052;-74
2023/10/18 15:09:03;;;;;;;8.98;4.10;;;;;;;;;;5134198;28;20092;-72
2023/10/18 15:11:51;;;;;;;10.25;4.55;;;;;;;;;;5119790;28;20047;-71
2023/10/18 15:14:37;;;;;;;8.60;4.40;;;;;;;;;;5133088;28;20016;-72
2023/10/18 15:17:25;;;;;;;9.55;4.53;;;;;;;;;;5129898;28;20019;-72
2023/10/18 15:20:12;;;;;;;10.13;4.00;;;;;;;;;;5139557;28;20033;-71
2023/10/18 15:22:58;;;;;;;14.68;5.38;;;;;;;;;;5133457;28;20027;-72
2023/10/18 15:25:44;;;;;;;16.60;6.47;;;;;;;;;;5110964;28;20023;-73
2023/10/18 15:28:31;;;;;;;15.00;6.47;;;;;;;;;;5105353;28;20112;-75
2023/10/18 15:31:17;;;;;;;10.90;5.88;;;;;;;;;;5117996;28;20098;-74
2023/10/18 15:34:03;;;;;;;18.38;6.03;;;;;;;;;;5117863;28;20027;-74
2023/10/18 15:36:49;;;;;;;19.95;5.53;;;;;;;;;;5117686;28;20016;-75
2023/10/18 15:39:35;;;;;;;12.75;6.15;;;;;;;;;;5102813;28;20016;-74
2023/10/18 15:42:23;;;;;;;20.13;5.82;;;;;;;;;;5117877;28;20480;-76
2023/10/18 15:45:12;;;;;;;14.98;5.22;;;;;;;;;;5101377;28;20103;-77
2023/10/18 15:48:03;;;;;;;13.82;5.80;;;;;;;;;;5103010;28;20015;-78
2023/10/18 15:50:51;;;;;;;18.33;6.30;;;;;;;;;;5102711;28;20065;-78
2023/10/18 15:53:39;;;;;;;20.70;6.57;;;;;;;;;;5116113;28;20392;-76
2023/10/18 15:56:28;;;;;;;23.00;8.70;;;;;;;;;;5102610;28;20023;-76
2023/10/18 15:59:17;;;;;;;24.50;11.73;;;;;;;;;;5115376;28;20100;-68
2023/10/18 16:02:11;;;;;;;24.08;10.75;;;;;;;;;;5103943;28;20028;-74
2023/10/18 16:04:56;;;;;;;35.53;11.48;;;;;;;;;;5103393;28;20118;-74
2023/10/18 16:07:42;;;;;;;30.58;10.60;;;;;;;;;;5117620;28;20043;-74
2023/10/18 16:10:29;;;;;;;24.92;12.07;;;;;;;;;;5102531;28;20376;-73
2023/10/18 16:13:23;;;;;;;19.23;9.98;;;;;;;;;;5117382;28;20024;-72
2023/10/18 16:16:09;;;;;;;25.30;10.93;;;;;;;;;;5116147;28;20019;-74
2023/10/18 16:18:58;;;;;;;29.25;10.65;;;;;;;;;;5101545;28;20076;-76
2023/10/18 16:21:43;;;;;;;32.35;11.32;;;;;;;;;;5117414;28;20503;-75
2023/10/18 16:24:29;;;;;;;31.92;11.20;;;;;;;;;;5116817;28;20020;-73
2023/10/18 16:27:14;;;;;;;27.65;12.50;;;;;;;;;;5117141;28;20027;-74
2023/10/18 16:30:05;;;;;;;35.22;13.88;;;;;;;;;;5116917;28;20364;-75
2023/10/18 16:32:51;;;;;;;31.38;13.93;;;;;;;;;;5117986;27;20016;-74
2023/10/18 16:35:36;;;;;;;35.45;14.50;;;;;;;;;;5117146;28;20020;-74
2023/10/18 16:38:22;;;;;;;30.20;13.70;;;;;;;;;;5101751;28;20030;-74
2023/10/18 16:41:13;;;;;;;32.05;13.57;;;;;;;;;;5116877;28;20057;-74
2023/10/18 16:44:01;;;;;;;31.67;12.98;;;;;;;;;;5116397;28;20030;-75
2023/10/18 16:46:48;;;;;;;32.80;14.13;;;;;;;;;;5100718;28;20034;-74
2023/10/18 16:49:33;;;;;;;29.77;12.93;;;;;;;;;;5101235;28;20047;-75
2023/10/18 16:52:22;;;;;;;32.40;13.93;;;;;;;;;;5115935;28;20455;-75
2023/10/18 16:55:08;;;;;;;25.83;14.38;;;;;;;;;;5116777;28;20020;-76
2023/10/18 16:57:56;;;;;;;31.73;15.52;;;;;;;;;;5121700;28;20026;-72
2023/10/18 17:00:46;;;;;;;31.90;14.40;;;;;;;;;;5091615;28;20027;-74
2023/10/18 17:03:32;;;;;;;44.80;22.20;;;;;;;;;;5107938;28;20478;-75
2023/10/18 17:06:18;;;;;;;70.68;36.92;;;;;;;;;;5116897;27;20061;-76
2023/10/18 17:09:03;;;;;;;94.78;47.88;;;;;;;;;;5100952;28;20016;-77
2023/10/18 17:11:49;;;;;;;82.60;43.45;;;;;;;;;;5099855;28;20034;-76
2023/10/18 17:14:35;;;;;;;64.07;35.70;;;;;;;;;;5115989;27;20022;-75
2023/10/18 17:17:22;;;;;;;57.83;33.05;;;;;;;;;;5117138;27;20055;-76
2023/10/18 17:20:08;;;;;;;56.08;27.98;;;;;;;;;;5116426;27;20019;-76